createdAt,value
2022-11-20T00:01:30.171Z,19.02
2022-11-20T00:03:59.876Z,13.13
2022-11-20T00:06:29.445Z,19.23
2022-11-20T00:08:59.164Z,15.25
2022-11-20T00:11:29.289Z,15.38
2022-11-20T00:14:01.831Z,9.70
2022-11-20T00:16:33.129Z,14.38
2022-11-20T00:19:01.592Z,14.52
2022-11-20T00:21:30.942Z,15.75
2022-11-20T00:23:59.681Z,11.18
2022-11-20T00:26:29.004Z,13.77
2022-11-20T00:28:58.608Z,17.63
2022-11-20T00:31:28.836Z,17.13
2022-11-20T00:33:57.218Z,16.10
2022-11-20T00:36:27.114Z,16.55
2022-11-20T00:38:56.798Z,10.98
2022-11-20T00:41:26.207Z,14.13
2022-11-20T00:43:55.074Z,15.32
2022-11-20T00:46:24.573Z,14.38
2022-11-20T00:48:54.382Z,13.50
2022-11-20T00:51:24.242Z,14.48
2022-11-20T00:53:53.024Z,12.65
2022-11-20T00:56:22.122Z,15.23
2022-11-20T00:58:51.143Z,16.73
2022-11-20T01:01:21.364Z,12.98
2022-11-20T01:03:51.312Z,15.85
2022-11-20T01:06:22.562Z,12.40
2022-11-20T01:08:52.519Z,14.50
2022-11-20T01:11:22.294Z,10.68
2022-11-20T01:13:51.829Z,12.70
2022-11-20T01:16:22.214Z,14.23
2022-11-20T01:18:51.903Z,12.73
2022-11-20T01:21:23.174Z,9.02
2022-11-20T01:23:52.380Z,11.73
2022-11-20T01:26:22.668Z,8.82
2022-11-20T01:28:51.937Z,11.55
2022-11-20T01:31:22.711Z,13.80
2022-11-20T01:33:53.402Z,12.23
2022-11-20T01:36:24.576Z,7.57
2022-11-20T01:38:55.245Z,9.35
2022-11-20T01:41:41.755Z,7.65
2022-11-20T01:44:15.984Z,10.27
2022-11-20T01:46:52.712Z,13.30
2022-11-20T01:49:23.105Z,12.40
2022-11-20T01:51:56.663Z,10.90
2022-11-20T01:54:26.626Z,13.93
2022-11-20T01:56:57.600Z,12.57
2022-11-20T01:59:26.860Z,12.15
2022-11-20T02:01:55.840Z,10.75
2022-11-20T02:04:25.222Z,12.75
2022-11-20T02:06:59.685Z,11.75
2022-11-20T02:09:28.114Z,13.15
2022-11-20T02:11:56.717Z,10.98
2022-11-20T02:14:24.692Z,10.13
2022-11-20T02:16:53.577Z,15.73
2022-11-20T02:19:26.015Z,12.27
2022-11-20T02:22:00.763Z,12.00
2022-11-20T02:27:01.598Z,10.32
2022-11-20T02:29:34.513Z,13.75
2022-11-20T02:32:03.492Z,10.57
2022-11-20T02:34:31.971Z,15.05
2022-11-20T02:37:01.536Z,7.90
2022-11-20T02:39:31.315Z,10.15
2022-11-20T02:41:59.635Z,12.63
2022-11-20T02:44:27.899Z,9.13
2022-11-20T02:46:58.889Z,11.57
2022-11-20T02:49:27.692Z,13.13
2022-11-20T02:51:56.321Z,11.90
2022-11-20T02:54:24.761Z,12.02
2022-11-20T02:56:54.444Z,7.65
2022-11-20T02:59:23.042Z,11.02
2022-11-20T03:01:51.704Z,7.30
2022-11-20T03:04:20.019Z,14.60
2022-11-20T03:06:48.332Z,10.13
2022-11-20T03:09:16.774Z,11.65
2022-11-20T03:11:45.061Z,11.57
2022-11-20T03:14:17.086Z,11.02
2022-11-20T03:16:45.484Z,11.77
2022-11-20T03:19:14.106Z,12.57
2022-11-20T03:21:42.441Z,9.43
2022-11-20T03:24:11.770Z,12.27
2022-11-20T03:26:41.424Z,12.80
2022-11-20T03:29:09.842Z,9.32
2022-11-20T03:31:41.812Z,14.27
2022-11-20T03:34:10.975Z,16.00
2022-11-20T03:36:40.007Z,10.40
2022-11-20T03:39:08.581Z,11.15
2022-11-20T03:41:39.294Z,9.27
2022-11-20T03:44:09.389Z,8.35
2022-11-20T03:46:39.341Z,12.98
2022-11-20T03:49:07.651Z,12.63
2022-11-20T03:51:37.501Z,12.55
2022-11-20T03:54:07.383Z,11.50
2022-11-20T03:56:37.979Z,12.32
2022-11-20T03:59:06.765Z,11.57
2022-11-20T04:01:36.374Z,11.27
2022-11-20T04:04:06.624Z,13.60
2022-11-20T04:06:38.116Z,12.52
2022-11-20T04:09:07.721Z,10.68
2022-11-20T04:11:37.502Z,12.15
2022-11-20T04:14:07.478Z,13.13
2022-11-20T04:16:38.108Z,12.32
2022-11-20T04:19:12.702Z,12.80
2022-11-20T04:21:41.300Z,14.65
2022-11-20T04:24:11.328Z,12.82
2022-11-20T04:26:39.961Z,13.43
2022-11-20T04:29:08.227Z,13.35
2022-11-20T04:31:37.270Z,11.35
2022-11-20T04:34:08.407Z,9.48
2022-11-20T04:36:37.000Z,13.05
2022-11-20T04:39:06.918Z,12.85
2022-11-20T04:41:37.134Z,12.77
2022-11-20T04:44:07.045Z,15.32
2022-11-20T04:46:36.922Z,13.50
2022-11-20T04:49:05.965Z,15.25
2022-11-20T04:51:36.026Z,12.10
2022-11-20T04:54:04.703Z,11.48
2022-11-20T04:56:33.073Z,12.93
2022-11-20T04:59:02.885Z,14.35
2022-11-20T05:01:31.561Z,11.35
2022-11-20T05:03:59.866Z,15.60
2022-11-20T05:06:28.150Z,15.57
2022-11-20T05:08:57.840Z,11.57
2022-11-20T05:11:26.331Z,13.32
2022-11-20T05:13:54.801Z,14.95
2022-11-20T05:16:26.147Z,12.98
2022-11-20T05:18:56.271Z,11.40
2022-11-20T05:21:25.042Z,15.27
2022-11-20T05:23:53.624Z,15.38
2022-11-20T05:26:24.465Z,13.43
2022-11-20T05:28:53.249Z,12.98
2022-11-20T05:31:27.190Z,15.88
2022-11-20T05:33:56.882Z,17.48
2022-11-20T05:36:25.645Z,13.20
2022-11-20T05:38:59.713Z,12.57
2022-11-20T05:41:31.318Z,14.82
2022-11-20T05:44:00.216Z,18.73
2022-11-20T05:46:29.602Z,16.15
2022-11-20T05:48:59.061Z,15.60
2022-11-20T05:51:28.277Z,15.77
2022-11-20T05:53:58.566Z,18.63
2022-11-20T05:56:26.919Z,14.45
2022-11-20T05:58:56.579Z,16.55
2022-11-20T06:01:26.703Z,15.32
2022-11-20T06:03:55.495Z,18.52
2022-11-20T06:06:24.162Z,10.70
2022-11-20T06:08:52.677Z,16.02
2022-11-20T06:11:21.253Z,14.82
2022-11-20T06:13:49.865Z,16.52
2022-11-20T06:16:21.472Z,15.02
2022-11-20T06:18:49.893Z,14.07
2022-11-20T06:21:19.362Z,15.60
2022-11-20T06:23:48.529Z,15.15
2022-11-20T06:26:18.735Z,15.07
2022-11-20T06:28:47.521Z,15.63
2022-11-20T06:31:17.662Z,15.23
2022-11-20T06:33:47.526Z,16.70
2022-11-20T06:36:20.584Z,16.08
2022-11-20T06:38:49.056Z,17.73
2022-11-20T06:41:18.852Z,17.15
2022-11-20T06:43:47.754Z,17.00
2022-11-20T06:46:18.664Z,14.77
2022-11-20T06:48:48.623Z,14.35
2022-11-20T06:51:17.045Z,15.20
2022-11-20T06:53:46.783Z,15.02
2022-11-20T06:56:15.262Z,13.70
2022-11-20T06:58:43.574Z,13.40
2022-11-20T07:01:13.637Z,17.38
2022-11-20T07:03:42.792Z,17.85
2022-11-20T07:06:13.892Z,16.80
2022-11-20T07:08:42.281Z,17.52
2022-11-20T07:11:14.486Z,14.18
2022-11-20T07:13:42.957Z,15.13
2022-11-20T07:16:11.472Z,17.45
2022-11-20T07:18:39.930Z,17.38
2022-11-20T07:21:09.930Z,20.77
2022-11-20T07:23:39.938Z,17.35
2022-11-20T07:26:09.195Z,18.67
2022-11-20T07:28:38.196Z,18.20
2022-11-20T07:31:07.935Z,17.67
2022-11-20T07:33:36.411Z,18.58
2022-11-20T07:36:05.334Z,18.38
2022-11-20T07:38:34.066Z,16.60
2022-11-20T07:41:03.796Z,18.52
2022-11-20T07:43:34.821Z,16.52
2022-11-20T07:46:06.934Z,18.38
2022-11-20T07:48:35.259Z,22.27
2022-11-20T07:51:04.987Z,19.05
2022-11-20T07:53:33.384Z,20.23
2022-11-20T07:56:03.739Z,21.00
2022-11-20T07:58:33.978Z,23.80
2022-11-20T08:01:05.664Z,18.50
2022-11-20T08:03:34.032Z,20.48
2022-11-20T08:06:02.732Z,20.80
2022-11-20T08:08:33.798Z,21.73
2022-11-20T08:11:21.574Z,19.27
2022-11-20T08:14:07.576Z,21.10
2022-11-20T08:16:35.905Z,24.17
2022-11-20T08:19:04.327Z,24.90
2022-11-20T08:21:37.808Z,25.95
2022-11-20T08:24:07.675Z,28.05
2022-11-20T08:26:38.245Z,22.42
2022-11-20T08:29:07.338Z,23.25
2022-11-20T08:31:35.901Z,24.10
2022-11-20T08:34:08.971Z,21.63
2022-11-20T08:36:38.309Z,24.20
2022-11-20T08:39:06.681Z,36.42
2022-11-20T08:41:35.116Z,26.55
2022-11-20T08:44:07.768Z,26.33
2022-11-20T08:46:40.552Z,26.98
2022-11-20T08:49:10.163Z,22.80
2022-11-20T08:51:38.880Z,27.05
2022-11-20T08:54:08.117Z,34.67
2022-11-20T08:56:36.637Z,29.73
2022-11-20T08:59:23.373Z,29.98
2022-11-20T09:01:56.665Z,26.77
2022-11-20T09:04:24.974Z,30.55
2022-11-20T09:06:53.333Z,27.10
2022-11-20T09:09:22.332Z,28.02
2022-11-20T09:11:52.106Z,28.17
2022-11-20T09:14:22.470Z,27.30
2022-11-20T09:16:50.769Z,31.60
2022-11-20T09:19:35.852Z,28.60
2022-11-20T09:22:04.625Z,28.73
2022-11-20T09:24:32.945Z,27.52
2022-11-20T09:27:04.288Z,30.88
2022-11-20T09:29:34.174Z,31.65
2022-11-20T09:32:02.475Z,31.30
2022-11-20T09:34:30.770Z,29.33
2022-11-20T09:37:01.629Z,29.65
2022-11-20T09:39:32.905Z,27.90
2022-11-20T09:42:21.257Z,28.50
2022-11-20T09:45:03.431Z,28.90
2022-11-20T09:47:44.675Z,29.58
2022-11-20T09:50:26.245Z,28.48
2022-11-20T09:53:11.207Z,33.35
2022-11-20T09:55:39.814Z,26.02
2022-11-20T09:58:09.622Z,26.95
2022-11-20T10:00:40.122Z,33.45
2022-11-20T10:03:15.819Z,31.42
2022-11-20T10:05:47.053Z,29.42
2022-11-20T10:08:19.478Z,29.92
2022-11-20T10:10:52.644Z,32.90
2022-11-20T10:13:38.291Z,27.10
2022-11-20T10:16:20.143Z,30.25
2022-11-20T10:19:01.265Z,27.20
2022-11-20T10:21:37.056Z,25.80
2022-11-20T10:24:26.321Z,25.05
2022-11-20T10:27:01.113Z,25.38
2022-11-20T10:29:34.365Z,27.80
2022-11-20T10:32:05.563Z,26.52
2022-11-20T10:34:37.506Z,17.60
2022-11-20T10:37:11.479Z,26.00
2022-11-20T10:39:44.632Z,27.00
2022-11-20T10:42:14.234Z,31.23
2022-11-20T10:45:06.878Z,23.33
2022-11-20T10:47:38.819Z,28.67
2022-11-20T10:50:11.117Z,27.60
2022-11-20T10:52:45.188Z,23.85
2022-11-20T10:55:24.492Z,27.10
2022-11-20T10:57:57.341Z,20.65
2022-11-20T11:00:25.664Z,25.45
2022-11-20T11:02:56.137Z,21.05
2022-11-20T11:05:32.295Z,26.27
2022-11-20T11:08:01.218Z,24.50
2022-11-20T11:10:35.539Z,23.60
2022-11-20T11:13:03.882Z,20.23
2022-11-20T11:15:39.047Z,24.20
2022-11-20T11:18:11.308Z,25.45
2022-11-20T11:20:40.113Z,23.73
2022-11-20T11:23:29.067Z,16.60
2022-11-20T11:25:59.876Z,20.30
2022-11-20T11:28:29.090Z,20.13
2022-11-20T11:30:57.981Z,17.50
2022-11-20T11:33:28.975Z,21.17
2022-11-20T11:35:59.319Z,23.67
2022-11-20T11:38:32.094Z,15.50
2022-11-20T11:41:01.066Z,17.20
2022-11-20T11:43:49.060Z,18.45
2022-11-20T11:46:30.152Z,13.43
2022-11-20T11:49:01.603Z,17.95
2022-11-20T11:51:35.649Z,17.95
2022-11-20T11:54:06.863Z,16.02
2022-11-20T11:56:35.983Z,17.10
2022-11-20T11:59:07.137Z,17.45
2022-11-20T12:01:41.874Z,18.63
2022-11-20T12:06:45.564Z,18.67
2022-11-20T12:09:14.584Z,19.58
2022-11-20T12:11:47.498Z,17.90
2022-11-20T12:14:25.379Z,18.23
2022-11-20T12:17:05.234Z,17.73
2022-11-20T12:19:44.018Z,19.08
2022-11-20T12:22:23.993Z,17.25
2022-11-20T12:25:03.646Z,18.50
2022-11-20T12:27:49.954Z,17.50
2022-11-20T12:30:20.127Z,15.35
2022-11-20T12:33:21.160Z,17.92
2022-11-20T12:36:20.261Z,18.42
2022-11-20T12:39:28.640Z,18.45
2022-11-20T12:42:38.120Z,15.00
2022-11-20T12:45:50.816Z,16.52
2022-11-20T12:48:29.996Z,16.90
2022-11-20T12:51:20.143Z,18.08
2022-11-20T12:54:25.636Z,16.95
2022-11-20T12:57:03.596Z,16.20
2022-11-20T12:59:43.724Z,12.93
2022-11-20T13:02:26.552Z,20.52
2022-11-20T13:05:08.934Z,16.30
2022-11-20T13:07:38.801Z,17.83
2022-11-20T13:10:16.210Z,18.90
2022-11-20T13:12:48.464Z,16.98
2022-11-20T13:15:25.489Z,18.10
2022-11-20T13:17:56.636Z,12.40
2022-11-20T13:20:25.081Z,16.55
2022-11-20T13:22:58.191Z,18.25
2022-11-20T13:25:27.497Z,17.92
2022-11-20T13:27:57.081Z,17.40
2022-11-20T13:30:26.637Z,17.15
2022-11-20T13:32:56.558Z,19.25
2022-11-20T13:35:30.290Z,19.17
2022-11-20T13:38:11.058Z,17.30
2022-11-20T13:40:40.875Z,19.80
2022-11-20T13:43:24.641Z,20.33
2022-11-20T13:46:11.405Z,16.63
2022-11-20T13:48:42.631Z,20.75
2022-11-20T13:51:20.650Z,18.70
2022-11-20T13:54:03.884Z,20.77
2022-11-20T13:56:39.967Z,20.13
2022-11-20T13:59:15.055Z,21.77
2022-11-20T14:01:45.849Z,19.20
2022-11-20T14:04:17.791Z,19.92
2022-11-20T14:06:48.019Z,23.85
2022-11-20T14:09:28.584Z,19.42
2022-11-20T14:11:57.804Z,19.00
2022-11-20T14:14:27.106Z,18.58
2022-11-20T14:17:07.760Z,15.85
2022-11-20T14:19:38.246Z,18.98
2022-11-20T14:22:19.794Z,17.83
2022-11-20T14:24:50.092Z,19.15
2022-11-20T14:27:20.482Z,21.63
2022-11-20T14:29:50.582Z,18.38
2022-11-20T14:32:19.961Z,21.02
2022-11-20T14:34:50.066Z,18.10
2022-11-20T14:37:22.407Z,18.88
2022-11-20T14:39:54.150Z,18.08
2022-11-20T14:44:54.000Z,15.23
2022-11-20T14:47:24.268Z,18.60
2022-11-20T14:49:53.273Z,17.92
2022-11-20T14:52:23.805Z,16.58
2022-11-20T14:54:54.875Z,16.30
2022-11-20T14:57:26.549Z,19.60
2022-11-20T15:00:13.132Z,19.23
2022-11-20T15:02:42.681Z,16.67
2022-11-20T15:05:11.238Z,19.25
2022-11-20T15:07:44.756Z,23.50
2022-11-20T15:10:16.289Z,20.33
2022-11-20T15:12:50.455Z,21.35
2022-11-20T15:15:23.178Z,20.42
2022-11-20T15:17:51.550Z,18.35
2022-11-20T15:20:20.278Z,17.20
2022-11-20T15:22:48.629Z,17.73
2022-11-20T15:25:20.061Z,20.30
2022-11-20T15:27:51.864Z,20.10
2022-11-20T15:30:22.556Z,17.67
2022-11-20T15:32:50.973Z,18.75
2022-11-20T15:35:19.343Z,19.10
2022-11-20T15:37:47.679Z,18.10
2022-11-20T15:40:16.682Z,18.50
2022-11-20T15:43:00.171Z,16.45
2022-11-20T15:45:31.286Z,20.52
2022-11-20T15:47:59.718Z,19.02
2022-11-20T15:50:31.856Z,17.83
2022-11-20T15:53:00.273Z,13.48
2022-11-20T15:55:28.824Z,23.15
2022-11-20T15:57:58.574Z,18.35
2022-11-20T16:00:26.869Z,18.15
2022-11-20T16:02:55.219Z,17.52
2022-11-20T16:05:25.285Z,20.95
2022-11-20T16:07:53.928Z,19.95
2022-11-20T16:10:22.299Z,21.33
2022-11-20T16:13:13.284Z,21.27
2022-11-20T16:15:49.174Z,18.90
2022-11-20T16:18:19.536Z,18.70
2022-11-20T16:20:49.352Z,19.77
2022-11-20T16:23:17.859Z,16.17
2022-11-20T16:25:46.236Z,17.52
2022-11-20T16:28:18.934Z,18.40
2022-11-20T16:30:49.295Z,15.63
2022-11-20T16:33:19.218Z,19.17
2022-11-20T16:35:47.598Z,15.48
2022-11-20T16:38:15.860Z,20.02
2022-11-20T16:40:44.232Z,23.42
2022-11-20T16:43:14.974Z,19.30
2022-11-20T16:45:44.043Z,21.65
2022-11-20T16:48:18.166Z,24.35
2022-11-20T16:50:51.274Z,19.48
2022-11-20T16:53:23.792Z,19.90
2022-11-20T16:55:52.187Z,23.55
2022-11-20T16:58:20.541Z,21.52
2022-11-20T17:00:51.868Z,23.60
2022-11-20T17:03:21.894Z,19.73
2022-11-20T17:05:50.375Z,21.58
2022-11-20T17:08:18.704Z,16.90
2022-11-20T17:10:47.061Z,18.52
2022-11-20T17:13:15.456Z,20.98
2022-11-20T17:15:43.810Z,17.63
2022-11-20T17:18:12.136Z,20.58
2022-11-20T17:20:41.859Z,20.00
2022-11-20T17:23:10.164Z,20.85
2022-11-20T17:25:38.522Z,18.88
2022-11-20T17:28:07.066Z,21.38
2022-11-20T17:30:35.412Z,19.30
2022-11-20T17:33:03.839Z,21.05
2022-11-20T17:35:32.138Z,22.77
2022-11-20T17:38:01.915Z,26.98
2022-11-20T17:40:30.364Z,58.60
2022-11-20T17:42:58.749Z,83.10
2022-11-20T17:45:27.153Z,78.05
2022-11-20T17:47:55.518Z,66.72
2022-11-20T17:50:23.851Z,77.82
2022-11-20T17:52:52.150Z,58.55
2022-11-20T17:55:22.024Z,33.67
2022-11-20T17:57:58.074Z,34.22
2022-11-20T18:00:27.104Z,37.33
2022-11-20T18:02:56.720Z,30.55
2022-11-20T18:05:25.046Z,29.73
2022-11-20T18:07:54.734Z,25.42
2022-11-20T18:10:24.539Z,28.33
2022-11-20T18:12:54.004Z,20.95
2022-11-20T18:15:22.383Z,25.77
2022-11-20T18:17:50.720Z,23.08
2022-11-20T18:20:29.515Z,21.00
2022-11-20T18:23:00.192Z,18.95
2022-11-20T18:25:29.960Z,23.73
2022-11-20T18:27:58.325Z,23.52
2022-11-20T18:30:26.947Z,24.70
2022-11-20T18:32:55.847Z,21.30
2022-11-20T18:35:24.210Z,22.55
2022-11-20T18:37:52.655Z,21.60
2022-11-20T18:40:21.195Z,22.50
2022-11-20T18:43:08.517Z,20.17
2022-11-20T18:45:36.901Z,18.20
2022-11-20T18:48:05.408Z,20.77
2022-11-20T18:50:33.755Z,20.50
2022-11-20T18:53:02.107Z,18.52
2022-11-20T18:55:30.521Z,19.58
2022-11-20T18:58:00.261Z,16.98
2022-11-20T19:00:28.681Z,17.15
2022-11-20T19:02:57.108Z,16.02
2022-11-20T19:05:25.439Z,20.65
2022-11-20T19:07:53.752Z,16.98
2022-11-20T19:10:24.372Z,15.90
2022-11-20T19:12:53.171Z,17.58
2022-11-20T19:15:23.011Z,15.30
2022-11-20T19:17:52.130Z,14.70
2022-11-20T19:20:20.759Z,14.77
2022-11-20T19:22:51.473Z,15.57
2022-11-20T19:25:19.840Z,13.65
2022-11-20T19:27:48.193Z,11.95
2022-11-20T19:30:17.436Z,14.88
2022-11-20T19:32:47.232Z,16.48
2022-11-20T19:35:15.723Z,7.85
2022-11-20T19:37:44.040Z,11.20
2022-11-20T19:40:12.829Z,11.88
2022-11-20T19:42:41.150Z,13.65
2022-11-20T19:45:10.665Z,8.55
2022-11-20T19:48:06.588Z,16.02
2022-11-20T19:50:28.868Z,14.32
2022-11-20T19:52:58.958Z,13.93
2022-11-20T19:55:27.770Z,13.23
2022-11-20T19:57:56.144Z,17.05
2022-11-20T20:00:29.554Z,16.35
2022-11-20T20:05:28.937Z,13.82
2022-11-20T20:07:57.660Z,16.50
2022-11-20T20:10:25.958Z,11.18
2022-11-20T20:12:54.469Z,19.02
2022-11-20T20:15:22.813Z,20.08
2022-11-20T20:17:53.058Z,20.63
2022-11-20T20:20:21.764Z,16.38
2022-11-20T20:22:51.747Z,19.63
2022-11-20T20:25:20.164Z,22.15
2022-11-20T20:27:48.526Z,21.20
2022-11-20T20:30:17.005Z,19.58
2022-11-20T20:32:45.358Z,27.13
2022-11-20T20:35:13.821Z,21.60
2022-11-20T20:37:42.332Z,27.23
2022-11-20T20:40:15.378Z,28.75
2022-11-20T20:42:44.034Z,24.45
2022-11-20T20:45:11.639Z,26.90
2022-11-20T20:50:11.136Z,26.30
2022-11-20T20:52:39.890Z,25.65
2022-11-20T20:55:08.772Z,28.45
2022-11-20T20:57:38.784Z,26.70
2022-11-20T21:00:08.919Z,27.45
2022-11-20T21:02:37.464Z,23.63
2022-11-20T21:05:06.522Z,28.13
2022-11-20T21:07:34.898Z,16.23
2022-11-20T21:10:03.331Z,24.55
2022-11-20T21:12:31.848Z,20.88
2022-11-20T21:15:01.549Z,27.98
2022-11-20T21:17:31.946Z,26.83
2022-11-20T21:20:00.322Z,25.80
2022-11-20T21:22:32.647Z,29.25
2022-11-20T21:25:04.719Z,23.10
2022-11-20T21:27:33.116Z,26.77
2022-11-20T21:30:02.892Z,31.02
2022-11-20T21:32:31.701Z,27.25
2022-11-20T21:34:59.991Z,24.23
2022-11-20T21:37:28.363Z,21.05
2022-11-20T21:39:56.644Z,25.02
2022-11-20T21:42:25.012Z,21.95
2022-11-20T21:44:53.338Z,12.45
2022-11-20T21:47:23.036Z,14.60
2022-11-20T21:49:51.332Z,25.92
2022-11-20T21:52:19.638Z,15.13
2022-11-20T21:54:47.931Z,25.52
2022-11-20T21:57:16.297Z,23.25
2022-11-20T21:59:44.596Z,28.00
2022-11-20T22:02:13.303Z,26.45
2022-11-20T22:04:43.090Z,25.02
2022-11-20T22:07:11.527Z,24.45
2022-11-20T22:09:39.848Z,23.70
2022-11-20T22:12:08.294Z,19.65
2022-11-20T22:14:35.567Z,22.17
2022-11-20T22:17:03.834Z,18.45
2022-11-20T22:19:32.124Z,24.48
2022-11-20T22:22:01.795Z,19.35
2022-11-20T22:24:30.138Z,23.83
2022-11-20T22:26:58.537Z,20.95
2022-11-20T22:29:26.829Z,20.13
2022-11-20T22:31:55.234Z,21.25
2022-11-20T22:34:23.670Z,23.13
2022-11-20T22:36:52.188Z,28.38
2022-11-20T22:39:23.229Z,23.70
2022-11-20T22:41:51.643Z,21.02
2022-11-20T22:44:19.971Z,26.10
2022-11-20T22:46:48.241Z,22.67
2022-11-20T22:49:16.592Z,23.42
2022-11-20T22:51:44.985Z,20.00
2022-11-20T22:54:13.935Z,21.55
2022-11-20T22:56:43.630Z,17.92
2022-11-20T22:59:12.491Z,23.08
2022-11-20T23:01:40.838Z,25.63
2022-11-20T23:04:11.261Z,17.25
2022-11-20T23:06:39.770Z,27.95
2022-11-20T23:09:09.374Z,19.40
2022-11-20T23:11:38.034Z,20.00
2022-11-20T23:14:08.864Z,29.08
2022-11-20T23:16:37.182Z,27.02
2022-11-20T23:19:07.122Z,27.48
2022-11-20T23:21:36.221Z,27.00
2022-11-20T23:24:04.833Z,20.25
2022-11-20T23:26:35.271Z,23.60
2022-11-20T23:29:03.797Z,21.77
2022-11-20T23:31:35.254Z,20.77
2022-11-20T23:34:03.580Z,21.25
2022-11-20T23:36:31.900Z,28.90
2022-11-20T23:39:00.237Z,20.58
2022-11-20T23:41:28.584Z,24.90
2022-11-20T23:43:56.971Z,28.38
2022-11-20T23:46:25.259Z,25.48
2022-11-20T23:48:57.497Z,20.73
2022-11-20T23:51:25.789Z,26.33
2022-11-20T23:53:54.045Z,20.85
2022-11-20T23:56:22.351Z,25.33
2022-11-20T23:58:50.624Z,24.50
